createdAt,value
2023-03-22T19:24:41.320Z,0.0000
2023-03-22T19:25:33.580Z,0.0000
2023-03-22T19:26:34.646Z,0.0000
2023-03-22T19:27:36.403Z,0.0000
2023-03-22T19:29:47.696Z,1387.2142
2023-03-22T19:30:39.187Z,3007.2500
2023-03-22T19:31:40.274Z,4149.6152
2023-03-22T19:32:48.039Z,5343.3848
2023-03-22T19:34:43.606Z,7233.6152
2023-03-22T19:35:44.767Z,8049.4614
2023-03-22T19:36:45.846Z,8788.3848
2023-03-22T19:37:46.959Z,9489.0771
2023-03-22T19:41:20.341Z,648.2857
2023-03-22T19:41:42.875Z,659.1818
2023-03-22T19:42:17.257Z,665.1539
2023-03-22T19:43:17.380Z,689.7692
2023-03-22T19:44:18.476Z,728.2308
2023-03-22T19:45:19.581Z,772.3846
2023-03-22T19:46:20.792Z,741.3846
2023-03-22T19:47:22.292Z,745.1539
2023-03-22T19:48:22.931Z,787.6923
2023-03-22T19:49:24.016Z,909.8461
2023-03-22T19:50:25.132Z,875.5385
2023-03-22T19:51:26.307Z,863.9231
2023-03-22T19:52:27.348Z,864.2308
2023-03-22T19:54:08.362Z,862.8461
2023-03-22T19:54:39.757Z,861.0769
2023-03-22T19:55:31.670Z,864.5385
2023-03-22T19:57:18.450Z,874.5714
2023-03-22T19:58:09.605Z,884.5833
2023-03-22T19:59:11.926Z,891.5385
2023-03-22T20:00:44.530Z,898.5385
2023-03-22T20:01:13.973Z,909.3077
2023-03-22T20:02:14.067Z,971.9231
2023-03-22T20:03:15.223Z,985.7692
2023-03-22T20:04:16.295Z,970.5385
2023-03-22T20:14:02.119Z,1006.8571
2023-03-22T20:14:53.778Z,1011.0833
2023-03-22T20:15:54.872Z,1013.8461
2023-03-22T20:25:11.643Z,1154.7142
2023-03-22T20:25:11.643Z,1134.0000
2023-03-22T20:27:12.379Z,1100.2142
2023-03-22T20:28:04.726Z,1110.4166
2023-03-22T20:33:52.477Z,708.4286
2023-03-22T20:34:44.800Z,680.0000
2023-03-22T20:35:45.910Z,681.6923
2023-03-22T20:36:47.032Z,656.9231
2023-03-22T20:37:48.140Z,641.7692
2023-03-22T20:38:49.269Z,638.0000
2023-03-22T20:39:50.434Z,630.0769
2023-03-22T20:40:51.496Z,626.9231
2023-03-22T20:41:53.407Z,633.3077
2023-03-22T20:44:22.080Z,650.1429
2023-03-22T20:45:13.059Z,650.0833
2023-03-22T20:46:14.178Z,652.3077
2023-03-22T20:47:15.251Z,666.0000
2023-03-22T20:48:16.372Z,681.9231
2023-03-22T20:49:17.501Z,725.6154
2023-03-22T20:50:18.697Z,730.3846
2023-03-22T20:51:19.726Z,735.5385
2023-03-22T20:52:21.534Z,747.3846
2023-03-22T20:53:21.938Z,824.0000
2023-03-22T20:54:23.111Z,850.2308
2023-03-22T20:55:24.220Z,815.5385
2023-03-22T20:56:25.291Z,802.1539
2023-03-22T20:57:26.398Z,800.8461
2023-03-22T20:58:27.522Z,811.1539
2023-03-22T20:59:28.635Z,842.6923
2023-03-22T21:00:29.811Z,855.8461
2023-03-22T21:01:30.866Z,866.0000
2023-03-22T21:02:31.994Z,876.1539
2023-03-22T21:03:33.099Z,878.7692
2023-03-22T21:05:19.738Z,888.5714
2023-03-22T21:06:11.721Z,905.6667
2023-03-22T21:07:12.818Z,944.2308
2023-03-22T21:08:14.994Z,966.2308
2023-03-22T21:09:15.039Z,960.9231
2023-03-22T21:10:16.153Z,953.7692
2023-03-22T21:11:17.307Z,955.5385
2023-03-22T21:12:18.366Z,985.5385
2023-03-22T21:14:45.783Z,977.5000
2023-03-22T21:15:37.782Z,983.8333
2023-03-22T21:16:38.959Z,1000.8461
2023-03-22T21:17:40.025Z,1006.7692
2023-03-22T21:18:41.142Z,1014.5385
2023-03-22T21:19:42.242Z,1016.9231
2023-03-22T21:22:57.423Z,1067.7142
2023-03-22T21:23:48.200Z,1064.6666
2023-03-22T21:25:57.908Z,1041.0000
2023-03-22T21:26:49.456Z,1046.7500
2023-03-22T21:27:51.848Z,1048.6154
2023-03-22T21:30:06.850Z,1101.5714
2023-03-22T21:30:58.340Z,1088.0834
2023-03-22T21:31:59.444Z,1003.3077
2023-03-22T21:33:00.573Z,890.6154
2023-03-22T21:34:01.662Z,775.2308
2023-03-22T21:35:02.796Z,703.6154
2023-03-22T21:36:03.974Z,664.0000
2023-03-22T21:37:05.016Z,652.3077
2023-03-22T21:38:06.117Z,647.9231
2023-03-22T22:07:03.288Z,752.8571
2023-03-22T22:07:55.922Z,758.7500
2023-03-22T22:10:31.956Z,791.5714
2023-03-22T22:11:24.368Z,805.0000
2023-03-22T22:15:31.556Z,827.1429
2023-03-22T22:16:23.730Z,833.0000
2023-03-22T22:23:22.344Z,893.2143
2023-03-22T22:25:14.881Z,898.7143
2023-03-22T22:26:06.320Z,902.1667
2023-03-22T22:27:07.456Z,886.9231
2023-03-22T22:28:08.545Z,867.5385
2023-03-22T22:29:09.711Z,823.1539
2023-03-22T22:30:10.765Z,824.8461
2023-03-22T22:31:11.885Z,841.5385
2023-03-22T22:32:12.984Z,842.8461
2023-03-22T22:33:14.117Z,829.0769
2023-03-22T22:34:15.279Z,826.7692
2023-03-22T22:35:16.345Z,851.7692
2023-03-22T22:36:17.424Z,884.3077
2023-03-22T22:37:18.537Z,914.4615
2023-03-22T22:38:19.625Z,923.7692
2023-03-22T22:39:20.798Z,941.7692
2023-03-22T22:40:21.830Z,953.6154
2023-03-22T22:41:22.958Z,959.7692
2023-03-22T22:42:24.039Z,965.6154
2023-03-22T22:43:25.165Z,966.0769
2023-03-22T22:44:26.365Z,966.6923
2023-03-22T22:45:27.405Z,968.7692
2023-03-22T22:46:28.457Z,972.8461
2023-03-22T22:47:29.607Z,979.0769
2023-03-22T22:48:30.652Z,985.2308
2023-03-22T22:49:31.855Z,997.0769
2023-03-22T22:50:32.862Z,1011.5385
2023-03-22T22:51:33.987Z,1014.0769
2023-03-22T22:52:35.073Z,1026.0769
2023-03-22T22:53:36.193Z,1035.9231
2023-03-22T22:54:37.391Z,1037.0769
2023-03-22T22:55:38.406Z,1039.6923
2023-03-22T22:56:39.468Z,1043.7693
2023-03-22T22:57:40.588Z,1046.5385
2023-03-22T22:58:41.666Z,1050.0000
2023-03-22T22:59:42.851Z,1055.0000
2023-03-22T23:00:43.869Z,1058.4615
2023-03-22T23:01:44.982Z,1068.6154
2023-03-22T23:02:46.090Z,1071.8462
2023-03-22T23:03:47.204Z,1080.4615
2023-03-22T23:04:48.323Z,1094.1538
2023-03-22T23:05:49.413Z,1097.0769
2023-03-22T23:06:50.493Z,1100.3846
2023-03-22T23:07:51.607Z,1104.9231
2023-03-22T23:08:52.695Z,1114.7693
2023-03-22T23:09:53.884Z,1118.3846
2023-03-22T23:10:54.905Z,1118.4615
